Time;durP1;ratioP1;P1;durP2;ratioP2;P2;SDS_P1;SDS_P2;PMS_P1;PMS_P2;Temp;Humidity;BMP_temperature;BMP_pressure;BME280_temperature;BME280_humidity;BME280_pressure;Samples;Min_cycle;Max_cycle;Signal;HPM_P1;HPM_P2
2024/03/19 00:00:58;;;;;;;36.28;17.38;;;;;;;9.48;100.00;97059.09;4951669;28;20085;-78
2024/03/19 00:03:29;;;;;;;39.20;18.60;;;;;;;9.53;100.00;97059.69;4953029;28;20047;-79
2024/03/19 00:06:05;;;;;;;34.80;17.52;;;;;;;9.46;100.00;97053.88;4968961;28;20041;-78
2024/03/19 00:08:34;;;;;;;39.50;17.30;;;;;;;9.57;100.00;97058.50;4957468;28;20053;-79
2024/03/19 00:11:05;;;;;;;38.58;17.08;;;;;;;9.59;100.00;97057.47;4951550;28;20042;-78
2024/03/19 00:13:57;;;;;;;33.05;17.05;;;;;;;9.53;100.00;97057.00;4965545;28;20035;-79
2024/03/19 00:16:26;;;;;;;;;;;;;;;9.52;100.00;97049.94;4951951;28;20027;-78
2024/03/19 00:18:57;;;;;;;32.47;16.30;;;;;;;9.45;100.00;97043.28;4951619;28;19960;-78
2024/03/19 00:21:28;;;;;;;32.25;15.95;;;;;;;9.38;100.00;97044.66;4957483;28;20407;-78
2024/03/19 00:24:02;;;;;;;37.75;17.38;;;;;;;9.53;100.00;97043.66;4970780;28;20125;-77
2024/03/19 00:26:33;;;;;;;34.80;16.45;;;;;;;9.48;100.00;97043.94;4971675;28;20476;-77
2024/03/19 00:29:14;;;;;;;;;;;;;;;;;;;;;
2024/03/19 00:31:51;;;;;;;27.73;14.77;;;;;;;9.40;100.00;97048.09;4970970;28;20041;-78
2024/03/19 00:34:28;;;;;;;;;;;;;;;;;;;;;
2024/03/19 00:36:59;;;;;;;31.33;16.00;;;;;;;9.32;100.00;97037.06;4953773;28;20043;-77
2024/03/19 00:39:31;;;;;;;28.27;15.35;;;;;;;9.27;100.00;97040.00;4932206;29;20031;-78
2024/03/19 00:42:02;;;;;;;29.95;14.38;;;;;;;9.30;100.00;97036.28;4948421;28;20031;-78
2024/03/19 00:44:57;;;;;;;29.75;14.55;;;;;;;9.37;100.00;97029.59;4963991;28;20506;-78
2024/03/19 00:47:26;;;;;;;24.42;13.73;;;;;;;9.32;100.00;97023.72;4970776;28;20026;-78
2024/03/19 00:50:02;;;;;;;28.15;14.30;;;;;;;9.31;100.00;97027.34;4970599;28;20043;-78
2024/03/19 00:52:35;;;;;;;34.65;14.35;;;;;;;9.24;100.00;97025.06;4967671;28;20110;-78
2024/03/19 00:55:03;;;;;;;29.08;13.68;;;;;;;9.21;100.00;97030.59;4968907;28;20037;-78
2024/03/19 00:57:38;;;;;;;33.47;14.50;;;;;;;9.20;100.00;97023.53;4971704;28;20037;-79
2024/03/19 01:00:15;;;;;;;28.17;14.35;;;;;;;9.31;100.00;97027.34;4953774;28;20101;-78
2024/03/19 01:02:46;;;;;;;30.88;14.63;;;;;;;9.24;100.00;97040.22;4951339;28;20510;-77
2024/03/19 01:05:22;;;;;;;35.67;13.00;;;;;;;9.11;100.00;97026.81;4950964;28;20069;-78
2024/03/19 01:07:47;;;;;;;25.30;12.90;;;;;;;9.10;100.00;97040.25;4965797;28;20027;-80
2024/03/19 01:10:35;;;;;;;31.30;13.20;;;;;;;9.11;100.00;97032.16;4970193;28;20042;-78
2024/03/19 01:13:01;;;;;;;24.98;14.10;;;;;;;9.12;100.00;97025.88;4971677;28;20467;-78
2024/03/19 01:15:40;;;;;;;27.63;13.48;;;;;;;9.08;100.00;97032.34;4970506;28;20033;-79
2024/03/19 01:18:27;;;;;;;27.85;13.70;;;;;;;9.10;100.00;97037.59;4970672;28;20034;-79
2024/03/19 01:21:03;;;;;;;27.85;13.07;;;;;;;9.11;100.00;97029.47;4971312;28;20049;-79
2024/03/19 01:23:39;;;;;;;21.80;12.55;;;;;;;9.15;100.00;97024.81;4968248;28;20090;-78
2024/03/19 01:26:07;;;;;;;21.27;12.48;;;;;;;9.14;100.00;97025.75;4966927;28;20510;-78
2024/03/19 01:28:43;;;;;;;29.35;13.57;;;;;;;9.22;100.00;97034.13;4952028;28;20034;-77
2024/03/19 01:31:16;;;;;;;27.02;11.85;;;;;;;9.21;100.00;97025.25;4950119;28;20026;-77
2024/03/19 01:33:56;;;;;;;;;;;;;;;;;;;;;
2024/03/19 01:36:31;;;;;;;25.05;12.45;;;;;;;9.12;100.00;97025.88;4967793;28;20029;-78
2024/03/19 01:39:22;;;;;;;20.33;11.15;;;;;;;9.09;100.00;97028.72;4951074;28;20420;-78
2024/03/19 01:41:59;;;;;;;22.70;11.60;;;;;;;9.15;100.00;97025.66;4952507;28;20034;-78
2024/03/19 01:44:51;;;;;;;22.42;10.98;;;;;;;9.18;100.00;97028.13;4969792;28;20108;-79
2024/03/19 01:47:23;;;;;;;20.42;10.82;;;;;;;9.14;100.00;97023.94;4962301;28;20030;-79
2024/03/19 01:50:03;;;;;;;19.23;11.10;;;;;;;9.09;100.00;97019.88;4938411;29;20471;-78
2024/03/19 01:53:06;;;;;;;22.58;11.30;;;;;;;9.16;100.00;97024.72;4947970;28;20030;-77
2024/03/19 01:55:45;;;;;;;22.42;12.57;;;;;;;9.15;100.00;97022.13;4962837;28;20046;-78
2024/03/19 01:58:15;;;;;;;33.65;15.32;;;;;;;9.15;100.00;97028.34;4956164;28;20042;-78
2024/03/19 02:00:46;;;;;;;25.23;12.85;;;;;;;9.08;100.00;97026.16;4973097;28;20418;-78
2024/03/19 02:03:25;;;;;;;21.13;10.93;;;;;;;9.05;100.00;97019.19;4973019;28;20535;-78
2024/03/19 02:09:18;;;;;;;34.45;12.38;;;;;;;9.11;100.00;97029.47;4966366;28;20419;-79
2024/03/19 02:14:46;;;;;;;25.38;13.40;;;;;;;8.97;100.00;97021.50;4959582;28;20038;-79
2024/03/19 02:17:18;;;;;;;26.80;14.20;;;;;;;8.93;100.00;97019.13;4974288;28;20029;-79
2024/03/19 02:20:08;;;;;;;;;;;;;;;;;;;;;
2024/03/19 02:22:36;;;;;;;29.10;13.57;;;;;;;8.89;100.00;97021.13;4969927;28;20046;-77
2024/03/19 02:25:08;;;;;;;34.38;15.00;;;;;;;8.93;100.00;97030.66;4943490;28;20454;-78
2024/03/19 02:27:37;;;;;;;32.97;14.55;;;;;;;8.95;100.00;97031.41;4962345;28;20090;-78
2024/03/19 02:30:05;;;;;;;39.47;13.82;;;;;;;8.93;100.00;97029.78;4959752;28;20379;-78
2024/03/19 02:32:40;;;;;;;27.77;12.77;;;;;;;8.89;100.00;97022.97;4956008;28;20037;-79
2024/03/19 02:35:11;;;;;;;25.73;13.25;;;;;;;8.88;100.00;97035.44;4938866;29;20027;-79
2024/03/19 02:37:51;;;;;;;25.20;14.02;;;;;;;8.79;100.00;97028.03;4959948;28;20031;-79
2024/03/19 02:40:51;;;;;;;24.63;13.45;;;;;;;8.75;100.00;97034.50;4967828;28;20027;-78
2024/03/19 02:43:19;;;;;;;25.30;13.45;;;;;;;8.76;100.00;97044.22;4972399;28;20121;-79
2024/03/19 02:45:55;;;;;;;28.38;13.18;;;;;;;8.79;100.00;97051.16;4956471;28;20568;-77
2024/03/19 02:48:23;;;;;;;19.27;10.15;;;;;;;8.80;100.00;97051.03;4972417;28;20053;-78
2024/03/19 02:51:02;;;;;;;20.10;11.43;;;;;;;8.79;100.00;97044.03;4972372;28;20402;-79
2024/03/19 02:53:33;;;;;;;20.50;11.05;;;;;;;8.86;100.00;97050.66;4957224;28;20037;-78
2024/03/19 02:56:13;;;;;;;18.13;9.88;;;;;;;8.89;100.00;97039.78;4938133;28;20042;-77
2024/03/19 02:58:39;;;;;;;18.65;9.48;;;;;;;8.99;100.00;97043.59;4951867;28;20031;-77
2024/03/19 03:01:17;;;;;;;;;;;;;;;;;;;;;
2024/03/19 03:03:54;;;;;;;16.88;8.13;;;;;;;8.92;100.00;97036.94;4954066;28;20035;-79
2024/03/19 03:06:30;;;;;;;16.95;8.32;;;;;;;8.84;100.00;97031.25;4954358;28;20134;-77
2024/03/19 03:09:17;;;;;;;13.57;8.30;;;;;;;8.75;100.00;97025.63;4954294;28;20027;-77
2024/03/19 03:11:45;;;;;;;17.80;8.07;;;;;;;8.64;100.00;97034.31;4957657;28;20034;-78
2024/03/19 03:14:32;;;;;;;63.03;39.08;;;;;;;8.47;100.00;97015.84;4973188;28;20038;-77
2024/03/19 03:17:08;;;;;;;13.68;7.65;;;;;;;8.43;100.00;97019.66;4973494;28;20399;-77
2024/03/19 03:20:00;;;;;;;8.68;5.85;;;;;;;8.34;100.00;97007.75;4971238;28;20479;-77
2024/03/19 03:22:28;;;;;;;13.95;6.45;;;;;;;8.21;100.00;97013.91;4952607;28;20024;-78
2024/03/19 03:24:57;;;;;;;15.45;6.65;;;;;;;8.15;100.00;97031.94;4936639;29;20031;-78
2024/03/19 03:27:28;;;;;;;12.57;6.30;;;;;;;8.21;100.00;97029.88;4970183;28;20450;-77
2024/03/19 03:29:56;;;;;;;11.57;6.93;;;;;;;8.17;100.00;97030.06;4971651;28;20026;-78
2024/03/19 03:32:31;;;;;;;16.27;7.35;;;;;;;8.22;100.00;97032.44;4964854;28;20042;-79
2024/03/19 03:34:56;;;;;;;12.98;6.20;;;;;;;8.22;100.00;97031.56;4971434;28;20038;-79
2024/03/19 03:38:00;;;;;;;12.65;6.40;;;;;;;8.21;100.00;97027.22;4964332;28;20070;-77
2024/03/19 03:40:36;;;;;;;19.48;5.28;;;;;;;8.22;100.00;97027.13;4952365;28;20027;-78
2024/03/19 03:43:24;;;;;;;19.27;6.60;;;;;;;8.13;100.00;97019.69;4937211;28;20038;-77
2024/03/19 03:45:52;;;;;;;13.25;5.97;;;;;;;8.18;100.00;97036.25;4953354;28;20466;-78
2024/03/19 03:48:34;;;;;;;14.15;6.18;;;;;;;8.16;100.00;97036.34;4936672;28;20498;-78
2024/03/19 03:51:00;;;;;;;18.30;7.60;;;;;;;8.11;100.00;97046.44;4955255;28;20053;-77
2024/03/19 03:53:31;;;;;;;19.63;8.48;;;;;;;8.07;100.00;97041.34;4972364;28;20475;-78
2024/03/19 03:56:08;;;;;;;17.63;9.10;;;;;;;7.99;100.00;97041.84;4971706;28;20033;-77
2024/03/19 03:58:41;;;;;;;21.63;10.20;;;;;;;7.99;100.00;97038.31;4970935;28;20041;-78
2024/03/19 04:01:12;;;;;;;26.77;10.40;;;;;;;8.04;100.00;97052.19;4971743;28;20035;-78
2024/03/19 04:04:15;;;;;;;25.30;11.50;;;;;;;7.96;100.00;97046.50;4971090;28;20422;-77
2024/03/19 04:06:58;;;;;;;;;;;;;;;7.88;100.00;97054.06;4972310;28;20034;-77
2024/03/19 04:09:32;;;;;;;;;;;;;;;7.82;100.00;97044.63;4971247;28;19993;-78
2024/03/19 04:12:03;;;;;;;18.02;7.53;;;;;;;7.78;100.00;97042.25;4964348;28;20001;-79
2024/03/19 04:14:39;;;;;;;21.03;8.90;;;;;;;7.67;100.00;97024.25;4970934;28;20053;-77
2024/03/19 04:17:05;;;;;;;27.88;9.85;;;;;;;7.71;100.00;97031.09;4960073;28;20059;-79
2024/03/19 04:19:35;;;;;;;21.58;9.10;;;;;;;7.73;100.00;97037.19;4951187;28;20137;-79
2024/03/19 04:22:12;;;;;;;29.33;8.27;;;;;;;7.58;100.00;97030.09;4951934;28;20034;-77
2024/03/19 04:24:52;;;;;;;18.52;8.25;;;;;;;7.62;100.00;97037.84;4962984;28;20034;-78
2024/03/19 04:27:23;;;;;;;12.07;6.45;;;;;;;7.60;100.00;97034.38;4970977;28;20030;-79
2024/03/19 04:30:10;;;;;;;13.98;5.95;;;;;;;7.61;100.00;97032.59;4970988;28;20058;-77
2024/03/19 04:32:43;;;;;;;13.63;6.47;;;;;;;7.66;100.00;97040.31;4953072;28;20027;-78
2024/03/19 04:35:16;;;;;;;14.40;7.40;;;;;;;7.77;100.00;97040.53;4951704;28;20042;-78
2024/03/19 04:37:52;;;;;;;17.02;9.00;;;;;;;7.77;100.00;97038.72;4953652;28;20039;-77
2024/03/19 04:40:25;;;;;;;8.10;4.38;;;;;;;7.80;100.00;97035.03;4959567;28;20030;-78
2024/03/19 04:42:57;;;;;;;10.60;5.38;;;;;;;7.76;100.00;97038.81;4937132;28;20036;-77
2024/03/19 04:45:22;;;;;;;6.65;4.50;;;;;;;7.79;100.00;97036.81;4935802;29;20042;-79
2024/03/19 04:48:08;;;;;;;11.00;5.00;;;;;;;7.84;100.00;97042.75;4952769;28;20039;-78
2024/03/19 04:50:56;;;;;;;10.93;5.68;;;;;;;7.92;100.00;97055.59;4970647;28;20046;-80
2024/03/19 04:53:24;;;;;;;13.95;6.40;;;;;;;8.01;100.00;97055.91;4970674;28;20554;-80
2024/03/19 04:55:54;;;;;;;19.95;10.35;;;;;;;8.16;100.00;97062.13;4938649;28;20031;-80
2024/03/19 04:58:22;;;;;;;11.98;6.90;;;;;;;8.17;100.00;97062.03;4951555;28;20059;-79
2024/03/19 05:01:07;;;;;;;19.35;9.32;;;;;;;8.29;100.00;97064.94;4953727;28;20554;-79
2024/03/19 05:03:45;;;;;;;17.67;8.40;;;;;;;8.35;100.00;97059.22;4967133;28;20084;-78
2024/03/19 05:09:01;;;;;;;18.05;9.15;;;;;;;8.45;100.00;97065.72;4970482;28;20390;-79
2024/03/19 05:11:35;;;;;;;18.55;9.77;;;;;;;8.53;100.00;97063.44;4970359;28;20419;-78
2024/03/19 05:14:04;;;;;;;24.48;10.73;;;;;;;8.50;100.00;97071.63;4946969;28;20507;-78
2024/03/19 05:17:13;;;;;;;;;;;;;;;;;;;;;
2024/03/19 05:19:57;;;;;;;15.00;7.30;;;;;;;8.63;100.00;97077.91;4945801;28;20031;-79
2024/03/19 05:22:30;;;;;;;15.88;6.78;;;;;;;8.65;100.00;97079.53;4931094;29;20574;-76
2024/03/19 05:25:02;;;;;;;25.30;9.68;;;;;;;8.66;100.00;97075.91;4959650;28;20089;-78
2024/03/19 05:27:41;;;;;;;27.75;9.40;;;;;;;8.75;100.00;97087.81;4930300;29;20027;-78
2024/03/19 05:30:16;;;;;;;19.65;7.80;;;;;;;8.80;100.00;97077.72;4960939;28;20027;-79
2024/03/19 05:33:13;;;;;;;30.98;11.63;;;;;;;8.97;100.00;97080.19;4953451;28;20058;-79
2024/03/19 05:35:50;;;;;;;47.55;18.77;;;;;;;9.00;100.00;97081.81;4968940;28;20031;-79
2024/03/19 05:38:18;;;;;;;81.10;36.78;;;;;;;9.02;100.00;97079.88;4970781;28;20427;-77
2024/03/19 05:40:46;;;;;;;16.10;7.90;;;;;;;9.12;100.00;97084.56;4953759;28;20034;-79
2024/03/19 05:43:12;;;;;;;22.80;6.97;;;;;;;9.24;100.00;97083.78;4962235;28;20034;-79
2024/03/19 05:45:58;;;;;;;54.33;25.25;;;;;;;9.24;100.00;97085.56;4955067;28;20085;-77
2024/03/19 05:48:40;;;;;;;19.58;8.13;;;;;;;9.42;100.00;97086.19;4974217;28;20134;-77
2024/03/19 05:51:15;;;;;;;18.67;8.02;;;;;;;9.32;100.00;97077.09;4957286;28;20105;-78
2024/03/19 05:53:43;;;;;;;15.20;7.93;;;;;;;9.47;100.00;97081.44;4973258;28;20074;-78
2024/03/19 05:56:15;;;;;;;13.27;7.13;;;;;;;9.63;100.00;97084.78;4971723;28;20104;-78
2024/03/19 05:58:41;;;;;;;14.05;7.65;;;;;;;9.80;100.00;97087.22;4938445;29;20035;-78
2024/03/19 06:01:32;;;;;;;18.33;7.85;;;;;;;9.98;100.00;97087.81;4953898;28;20514;-78
2024/03/19 06:04:23;;;;;;;17.05;6.78;;;;;;;10.19;100.00;97067.69;4955100;28;20035;-77
2024/03/19 06:06:55;;;;;;;20.52;7.30;;;;;;;10.36;100.00;97053.19;4955158;28;20043;-78
2024/03/19 06:09:29;;;;;;;;;;;;;;;10.48;100.00;97055.00;4954232;28;20487;-79
2024/03/19 06:12:00;;;;;;;10.88;5.40;;;;;;;10.69;97.63;97050.81;4953772;28;19973;-77
2024/03/19 06:14:44;;;;;;;12.35;4.13;;;;;;;10.74;85.38;97054.03;4937727;28;20027;-78
2024/03/19 06:17:19;;;;;;;12.05;3.85;;;;;;;10.73;77.63;97053.19;4937810;28;20105;-77
2024/03/19 06:19:53;;;;;;;6.88;3.33;;;;;;;10.64;74.57;97055.66;4960498;28;20030;-78
2024/03/19 06:22:26;;;;;;;10.27;3.22;;;;;;;10.79;71.87;97058.09;4973002;28;20035;-78
2024/03/19 06:25:00;;;;;;;5.55;2.80;;;;;;;10.76;66.11;97034.25;4943394;29;20614;-77
2024/03/19 06:27:28;;;;;;;9.90;2.92;;;;;;;10.72;67.87;97051.47;4938074;28;20046;-79
2024/03/19 06:30:00;;;;;;;7.65;3.45;;;;;;;10.70;69.41;97058.75;4968866;28;20027;-78
2024/03/19 06:32:44;;;;;;;7.97;3.40;;;;;;;10.69;67.84;97067.75;4956975;28;20035;-77
2024/03/19 06:35:11;;;;;;;10.75;6.13;;;;;;;10.75;70.93;97071.78;4963021;28;20715;-78
2024/03/19 06:37:41;;;;;;;12.23;3.88;;;;;;;10.66;71.61;97083.13;4963044;28;20499;-78
2024/03/19 06:40:17;;;;;;;11.75;4.13;;;;;;;10.57;70.10;97078.44;4952288;28;20039;-77
2024/03/19 06:42:46;;;;;;;4.70;3.25;;;;;;;10.57;71.33;97091.81;4953679;28;20027;-78
2024/03/19 06:45:22;;;;;;;7.25;3.05;;;;;;;10.67;73.48;97092.88;4962492;28;20443;-78
2024/03/19 06:48:18;;;;;;;6.63;2.85;;;;;;;10.78;70.34;97103.69;4972540;28;20120;-78
2024/03/19 06:51:02;;;;;;;7.07;2.55;;;;;;;10.72;70.70;97099.63;4956754;28;20041;-77
2024/03/19 06:53:30;;;;;;;7.18;3.80;;;;;;;10.71;71.59;97102.38;4973289;28;20023;-77
2024/03/19 06:56:04;;;;;;;6.25;2.80;;;;;;;10.61;75.15;97122.72;4956377;28;20026;-77
2024/03/19 06:58:30;;;;;;;15.80;6.97;;;;;;;10.45;80.74;97128.28;4973492;28;20029;-78
2024/03/19 07:01:03;;;;;;;10.85;5.03;;;;;;;10.34;87.37;97134.34;4972577;28;20467;-78
2024/03/19 07:03:43;;;;;;;8.82;3.83;;;;;;;10.29;93.86;97144.50;4971942;28;20046;-78
2024/03/19 07:06:26;;;;;;;13.30;4.05;;;;;;;10.07;95.19;97149.50;4972407;28;20030;-76
2024/03/19 07:08:57;;;;;;;11.13;4.78;;;;;;;9.96;100.00;97168.06;4967775;28;20082;-78
2024/03/19 07:11:36;;;;;;;16.73;5.85;;;;;;;9.88;100.00;97175.72;4953030;28;20118;-79
2024/03/19 07:14:13;;;;;;;11.85;4.32;;;;;;;9.89;100.00;97187.25;4954155;28;20046;-77
2024/03/19 07:16:57;;;;;;;7.28;3.65;;;;;;;9.73;100.00;97198.94;4954074;28;20065;-78
2024/03/19 07:19:28;;;;;;;9.88;4.60;;;;;;;9.68;100.00;97210.88;4953701;28;20380;-78
2024/03/19 07:22:04;;;;;;;17.33;5.63;;;;;;;9.67;100.00;97222.50;4948337;29;20135;-77
2024/03/19 07:24:33;;;;;;;11.38;5.03;;;;;;;9.57;100.00;97226.69;4961830;28;20030;-77
2024/03/19 07:27:23;;;;;;;6.18;3.78;;;;;;;9.64;100.00;97226.22;4969967;28;20038;-79
2024/03/19 07:30:11;;;;;;;8.63;4.40;;;;;;;9.59;100.00;97235.50;4968699;28;20027;-78
2024/03/19 07:32:44;;;;;;;7.55;4.22;;;;;;;9.37;100.00;97253.81;4953929;28;20137;-77
2024/03/19 07:35:17;;;;;;;10.82;4.70;;;;;;;9.26;100.00;97257.97;4946724;28;20117;-79
2024/03/19 07:38:07;;;;;;;7.38;4.03;;;;;;;9.18;100.00;97259.41;4955819;28;20117;-78
2024/03/19 07:40:51;;;;;;;9.57;4.15;;;;;;;9.00;100.00;97265.84;4970328;28;20042;-77
2024/03/19 07:43:39;;;;;;;11.48;4.53;;;;;;;8.74;100.00;97280.72;4952518;28;20027;-78
2024/03/19 07:46:31;;;;;;;11.15;4.88;;;;;;;8.69;100.00;97282.81;4951637;28;20431;-77
2024/03/19 07:48:59;;;;;;;13.75;4.70;;;;;;;8.51;100.00;97290.09;4953524;28;20495;-78
2024/03/19 07:51:28;;;;;;;9.05;4.53;;;;;;;8.39;100.00;97295.28;4936353;28;20066;-78
2024/03/19 07:54:10;;;;;;;10.40;4.80;;;;;;;8.22;100.00;97298.84;4952215;28;20483;-77
2024/03/19 07:56:41;;;;;;;7.47;4.63;;;;;;;8.14;100.00;97307.28;4952956;28;20482;-77
2024/03/19 07:59:12;;;;;;;13.80;5.60;;;;;;;8.02;100.00;97307.13;4958593;28;20034;-78
2024/03/19 08:01:43;;;;;;;12.07;5.18;;;;;;;7.91;100.00;97314.81;4971172;28;20054;-78
2024/03/19 08:04:11;;;;;;;10.02;4.32;;;;;;;7.92;100.00;97325.41;4971507;28;20023;-76
2024/03/19 08:06:44;;;;;;;9.75;4.90;;;;;;;7.78;100.00;97317.31;4970516;28;20034;-78
2024/03/19 08:09:10;;;;;;;8.25;4.70;;;;;;;7.82;100.00;97324.16;4954330;28;20482;-77
2024/03/19 08:11:47;;;;;;;8.77;4.93;;;;;;;7.88;100.00;97329.16;4968392;28;20121;-77
2024/03/19 08:14:13;;;;;;;9.85;5.63;;;;;;;7.68;100.00;97331.19;4951709;28;20031;-78
2024/03/19 08:16:51;;;;;;;9.57;5.57;;;;;;;7.78;100.00;97324.44;4952758;28;20126;-79
2024/03/19 08:19:36;;;;;;;13.40;6.32;;;;;;;7.93;100.00;97336.91;4953174;28;20023;-77
2024/03/19 08:22:23;;;;;;;11.25;5.00;;;;;;;7.84;100.00;97337.41;4952789;28;20085;-78
2024/03/19 08:25:15;;;;;;;10.70;5.65;;;;;;;7.86;100.00;97339.06;4952199;28;20479;-78
2024/03/19 08:27:43;;;;;;;;;;;;;;;7.97;100.00;97341.97;4951654;28;20027;-77
2024/03/19 08:30:20;;;;;;;13.90;5.45;;;;;;;8.05;100.00;97329.13;4951458;28;19926;-77
2024/03/19 08:32:54;;;;;;;7.82;4.75;;;;;;;8.01;100.00;97335.53;4951605;28;20039;-77
2024/03/19 08:35:28;;;;;;;12.52;5.47;;;;;;;8.15;100.00;97342.78;4950095;28;20031;-77
2024/03/19 08:37:56;;;;;;;9.73;4.93;;;;;;;8.25;100.00;97351.09;4967394;28;20146;-77
2024/03/19 08:40:35;;;;;;;11.50;5.35;;;;;;;8.14;100.00;97339.25;4957227;28;20049;-77
2024/03/19 08:43:19;;;;;;;15.38;5.57;;;;;;;8.03;100.00;97344.28;4952010;28;20027;-77
2024/03/19 08:45:55;;;;;;;8.80;4.68;;;;;;;8.04;100.00;97342.50;4955423;28;20034;-77
2024/03/19 08:48:23;;;;;;;8.38;4.65;;;;;;;7.96;100.00;97342.06;4972081;28;20027;-78
2024/03/19 08:51:05;;;;;;;8.00;4.40;;;;;;;7.77;100.00;97339.56;4971226;28;20054;-77
2024/03/19 08:53:30;;;;;;;8.30;5.17;;;;;;;7.73;100.00;97334.47;4947835;28;20042;-77
2024/03/19 08:56:05;;;;;;;8.43;5.13;;;;;;;7.70;100.00;97332.81;4970130;28;20034;-77
2024/03/19 08:58:44;;;;;;;7.88;4.57;;;;;;;7.65;100.00;97329.56;4943990;29;20039;-78
2024/03/19 09:01:21;;;;;;;9.88;4.80;;;;;;;7.41;100.00;97330.88;4958821;28;20090;-77
2024/03/19 09:03:51;;;;;;;10.40;5.07;;;;;;;7.42;100.00;97333.44;4958403;28;20058;-78
2024/03/19 09:06:30;;;;;;;9.93;4.63;;;;;;;7.52;100.00;97336.47;4963992;28;20142;-78
2024/03/19 09:08:56;;;;;;;13.20;5.40;;;;;;;7.46;100.00;97331.47;4956211;28;20039;-77
2024/03/19 09:11:31;;;;;;;11.70;5.25;;;;;;;7.46;100.00;97335.00;4955014;28;20035;-76
2024/03/19 09:13:58;;;;;;;8.68;4.63;;;;;;;7.68;100.00;97326.75;4972168;28;20067;-78
2024/03/19 09:16:29;;;;;;;12.43;5.90;;;;;;;7.73;100.00;97326.47;4969290;28;20031;-77
2024/03/19 09:19:12;;;;;;;16.67;6.18;;;;;;;7.61;100.00;97328.00;4954889;28;20411;-78
2024/03/19 09:21:40;;;;;;;11.57;5.90;;;;;;;7.66;100.00;97319.78;4961364;28;20102;-78
2024/03/19 09:24:21;;;;;;;;;;;;;;;;;;;;;
2024/03/19 09:27:07;;;;;;;13.70;6.75;;;;;;;7.81;100.00;97317.16;4967398;28;20027;-77
2024/03/19 09:29:38;;;;;;;24.08;9.50;;;;;;;7.83;100.00;97304.59;4948868;29;20122;-77
2024/03/19 09:32:08;;;;;;;14.65;7.22;;;;;;;8.15;100.00;97302.81;4962435;28;20435;-78
2024/03/19 09:34:43;;;;;;;11.98;5.75;;;;;;;8.35;100.00;97299.03;4938557;29;20137;-77
2024/03/19 09:37:29;;;;;;;13.57;6.03;;;;;;;8.42;100.00;97301.28;4967279;28;20491;-77
2024/03/19 09:40:15;;;;;;;15.18;8.65;;;;;;;8.59;100.00;97287.84;4961331;28;20053;-76
2024/03/19 09:42:43;;;;;;;14.70;7.25;;;;;;;8.80;100.00;97290.22;4973862;28;20391;-78
2024/03/19 09:45:35;;;;;;;10.82;6.03;;;;;;;9.04;100.00;97297.63;4973350;28;20034;-77
2024/03/19 09:48:10;;;;;;;10.00;5.15;;;;;;;9.33;100.00;97294.97;4975001;28;20107;-78
2024/03/19 09:50:43;;;;;;;13.57;7.95;;;;;;;9.51;100.00;97308.03;4950416;28;20133;-78
2024/03/19 09:53:20;;;;;;;17.35;7.90;;;;;;;9.69;100.00;97300.72;4973261;28;20023;-78
2024/03/19 09:55:46;;;;;;;19.75;9.43;;;;;;;10.26;100.00;97294.38;4973541;28;20506;-76
2024/03/19 09:58:15;;;;;;;22.02;12.13;;;;;;;10.13;100.00;97292.56;4963212;28;20094;-78
2024/03/19 10:00:55;;;;;;;13.77;8.73;;;;;;;9.41;100.00;97298.03;4953861;28;20047;-78
2024/03/19 10:03:23;;;;;;;15.48;7.82;;;;;;;9.51;100.00;97291.16;4953994;28;20043;-77
2024/03/19 10:06:30;;;;;;;12.48;6.80;;;;;;;10.33;100.00;97295.72;4952563;28;20090;-77
2024/03/19 10:09:09;;;;;;;10.20;5.97;;;;;;;10.44;100.00;97291.44;4953965;28;20130;-77
2024/03/19 10:11:38;;;;;;;8.05;5.18;;;;;;;10.79;100.00;97287.31;4959115;28;20488;-78
2024/03/19 10:14:11;;;;;;;11.65;6.90;;;;;;;11.00;100.00;97285.88;4973953;28;20051;-77
2024/03/19 10:16:51;;;;;;;9.73;5.53;;;;;;;11.77;100.00;97276.94;4968559;28;20031;-77
2024/03/19 10:19:37;;;;;;;7.38;4.30;;;;;;;12.07;100.00;97265.84;4964090;28;20057;-78
2024/03/19 10:22:12;;;;;;;8.00;4.72;;;;;;;11.68;100.00;97261.47;4973005;28;20491;-77
2024/03/19 10:24:49;;;;;;;12.98;5.43;;;;;;;11.66;100.00;97261.56;4972980;28;20097;-78
2024/03/19 10:27:23;;;;;;;19.42;8.43;;;;;;;12.15;100.00;97240.16;4970660;28;20047;-79
2024/03/19 10:29:59;;;;;;;12.32;6.05;;;;;;;12.65;100.00;97252.53;4972974;28;20062;-79
2024/03/19 10:32:26;;;;;;;11.30;6.13;;;;;;;12.76;100.00;97241.00;4953831;28;20031;-78
2024/03/19 10:34:58;;;;;;;9.90;5.53;;;;;;;13.51;100.00;97240.47;4954699;28;20483;-77
2024/03/19 10:37:29;;;;;;;9.32;5.65;;;;;;;12.45;100.00;97232.56;4975374;28;20026;-77
2024/03/19 10:40:02;;;;;;;10.10;6.00;;;;;;;12.71;100.00;97233.28;4973041;28;20035;-77
2024/03/19 10:42:32;;;;;;;10.48;6.07;;;;;;;13.29;100.00;97229.69;4966662;28;20060;-77
2024/03/19 10:45:18;;;;;;;12.27;6.10;;;;;;;13.28;100.00;97224.47;4957145;28;20090;-77
2024/03/19 10:47:47;;;;;;;9.15;6.38;;;;;;;13.45;100.00;97222.16;4972649;28;20042;-78
2024/03/19 10:50:23;;;;;;;11.70;6.20;;;;;;;12.86;100.00;97217.84;4972300;28;20031;-79
2024/03/19 10:53:08;;;;;;;7.80;5.70;;;;;;;12.67;100.00;97226.47;4965644;28;20800;-78
2024/03/19 10:55:48;;;;;;;12.20;6.85;;;;;;;12.32;100.00;97237.13;4958125;28;20068;-79
2024/03/19 10:58:28;;;;;;;;;;;;;;;;;;;;;
2024/03/19 11:01:09;;;;;;;11.20;5.13;;;;;;;12.04;100.00;97218.66;4967936;28;20027;-78
2024/03/19 11:06:37;;;;;;;8.95;5.05;;;;;;;11.87;100.00;97229.75;4949029;28;20118;-78
2024/03/19 11:09:18;;;;;;;8.93;5.55;;;;;;;12.25;100.00;97218.91;4959961;28;20098;-78
2024/03/19 11:11:53;;;;;;;10.30;5.60;;;;;;;12.41;100.00;97211.44;4936725;28;20015;-80
2024/03/19 11:14:24;;;;;;;11.90;5.25;;;;;;;12.57;100.00;97205.78;4937445;28;20041;-79
2024/03/19 11:16:51;;;;;;;8.93;5.50;;;;;;;13.64;98.10;97199.19;4946911;28;20455;-79
2024/03/19 11:19:17;;;;;;;9.93;5.50;;;;;;;14.36;88.87;97200.47;4935642;28;20499;-79
2024/03/19 11:22:03;;;;;;;8.57;5.70;;;;;;;15.13;79.71;97185.81;4956764;28;20034;-79
2024/03/19 11:24:35;;;;;;;10.80;6.00;;;;;;;15.35;77.80;97177.56;4972201;28;20033;-79
2024/03/19 11:27:18;;;;;;;8.90;4.93;;;;;;;16.23;66.32;97167.00;4971760;28;20042;-78
2024/03/19 11:29:51;;;;;;;7.28;4.55;;;;;;;17.01;58.54;97144.47;4938695;28;20039;-80
2024/03/19 11:32:31;;;;;;;9.45;4.18;;;;;;;17.69;52.44;97136.03;4971890;28;20098;-79
2024/03/19 11:35:08;;;;;;;7.80;4.18;;;;;;;18.15;50.58;97116.13;4955955;28;20033;-79
2024/03/19 11:37:53;;;;;;;9.48;5.00;;;;;;;17.29;53.09;97130.03;4960895;28;20049;-77
2024/03/19 11:40:39;;;;;;;5.88;3.85;;;;;;;16.98;52.60;97120.44;4953186;28;20034;-79
2024/03/19 11:43:24;;;;;;;8.02;4.53;;;;;;;16.94;53.07;97124.44;4962756;28;20106;-79
2024/03/19 11:45:54;;;;;;;10.70;5.47;;;;;;;17.10;53.42;97124.69;4952229;28;20034;-78
2024/03/19 11:48:24;;;;;;;9.95;4.40;;;;;;;17.74;51.50;97114.81;4956041;28;20046;-79
2024/03/19 11:50:56;;;;;;;24.75;15.05;;;;;;;18.30;49.62;97111.88;4952312;28;20391;-79
2024/03/19 11:53:32;;;;;;;15.52;7.07;;;;;;;18.50;48.19;97106.38;4967944;28;20082;-80
2024/03/19 11:56:13;;;;;;;20.17;8.73;;;;;;;18.49;49.45;97113.63;4952173;28;20034;-79
2024/03/19 11:58:43;;;;;;;11.48;5.90;;;;;;;18.45;49.44;97101.41;4955960;28;20039;-79
2024/03/19 12:01:17;;;;;;;9.40;5.22;;;;;;;17.73;53.57;97117.66;4955530;28;20042;-81
2024/03/19 12:03:49;;;;;;;8.50;4.88;;;;;;;17.48;52.32;97108.34;4967960;28;20043;-78
2024/03/19 12:06:19;;;;;;;7.63;4.90;;;;;;;17.13;55.24;97117.16;4951739;28;20054;-79
2024/03/19 12:08:53;;;;;;;9.82;4.78;;;;;;;17.08;54.58;97116.72;4933482;28;20289;-79
2024/03/19 12:11:23;;;;;;;9.70;4.53;;;;;;;16.69;57.63;97115.06;4949431;28;20035;-78
2024/03/19 12:14:03;;;;;;;9.95;5.03;;;;;;;17.63;55.76;97114.13;4952104;28;20094;-80
2024/03/19 12:16:55;;;;;;;10.15;4.70;;;;;;;18.60;52.01;97097.16;4965470;28;20030;-80
2024/03/19 12:19:57;;;;;;;9.23;4.30;;;;;;;19.32;50.83;97094.16;4949026;28;20419;-80
2024/03/19 12:22:26;;;;;;;9.43;4.60;;;;;;;21.85;45.11;97074.28;4962727;28;20050;-78
2024/03/19 12:25:13;;;;;;;13.90;7.32;;;;;;;21.67;43.90;97062.78;4958739;28;20435;-80
2024/03/19 12:27:39;;;;;;;7.28;4.70;;;;;;;18.21;46.16;97076.78;4959628;28;20043;-79
2024/03/19 12:30:13;;;;;;;9.85;5.78;;;;;;;14.42;63.95;97111.16;4963685;28;20532;-78